Time;durP1;ratioP1;P1;durP2;ratioP2;P2;SDS_P1;SDS_P2;PMS_P1;PMS_P2;Temp;Humidity;BMP_temperature;BMP_pressure;BME280_temperature;BME280_humidity;BME280_pressure;Samples;Min_cycle;Max_cycle;Signal;HPM_P1;HPM_P2
2022/03/18 00:01:19;;;;;;;;;;;;;;;1.16;82.66;102637.44;5006993;28;1374;-91
2022/03/18 00:03:44;;;;;;;;;;;;;;;1.19;82.63;102646.06;5014039;28;1236;-91
2022/03/18 00:06:19;;;;;;;;;;;;;;;1.11;82.30;102635.25;5004160;28;1461;-90
2022/03/18 00:08:46;;;;;;;;;;;;;;;1.12;82.37;102645.03;4999531;28;1428;-91
2022/03/18 00:11:11;;;;;;;;;;;;;;;1.19;82.20;102653.31;5017500;28;1485;-91
2022/03/18 00:13:37;;;;;;;;;;;;;;;1.22;82.89;102656.50;5017867;28;1898;-91
2022/03/18 00:16:02;;;;;;;;;;;;;;;1.19;82.50;102662.25;5018603;28;1386;-91
2022/03/18 00:18:28;;;;;;;;;;;;;;;1.22;82.47;102669.16;5018406;28;1316;-91
2022/03/18 00:20:58;;;;;;;;;;;;;;;1.29;82.69;102673.72;5018295;28;1306;-91
2022/03/18 00:23:26;;;;;;;;;;;;;;;1.26;82.51;102668.66;5018030;28;1374;-92
2022/03/18 00:25:51;;;;;;;;;;;;;;;1.18;82.37;102662.41;5018242;28;1197;-91
2022/03/18 00:28:22;;;;;;;;;;;;;;;1.13;81.96;102669.13;5018249;28;1353;-92
2022/03/18 00:30:48;;;;;;;;;;;;;;;1.07;81.79;102664.41;5001377;28;1477;-91
2022/03/18 00:33:13;;;;;;;;;;;;;;;1.05;82.59;102674.50;5006342;28;1906;-92
2022/03/18 00:35:38;;;;;;;;;;;;;;;1.18;83.02;102663.25;5018155;28;1535;-92
2022/03/18 00:38:03;;;;;;;;;;;;;;;1.16;82.58;102667.13;5018034;28;1189;-92
2022/03/18 00:40:29;;;;;;;;;;;;;;;1.13;83.04;102677.22;5017969;28;1399;-92
2022/03/18 00:43:35;;;;;;;;;;;;;;;0.97;82.63;102671.78;5018581;28;1296;-92
2022/03/18 00:46:26;;;;;;;;;;;;;;;0.88;82.77;102667.38;5017411;28;1313;-92
2022/03/18 00:54:25;;;;;;;;;;;;;;;0.95;82.62;102678.34;5036019;28;658;-91
2022/03/18 00:56:53;;;;;;;;;;;;;;;0.96;83.17;102678.19;5018134;28;1548;-92
2022/03/18 00:59:18;;;;;;;;;;;;;;;0.89;82.75;102677.16;5016048;28;1385;-90
2022/03/18 01:01:54;;;;;;;;;;;;;;;0.88;82.50;102672.78;5003131;28;1489;-91
2022/03/18 01:04:22;;;;;;;;;;;;;;;0.82;82.52;102676.13;5017323;28;1468;-91
2022/03/18 01:06:52;;;;;;;;;;;;;;;0.73;82.28;102677.97;5017672;28;1275;-91
2022/03/18 01:09:20;;;;;;;;;;;;;;;0.64;82.46;102672.69;5018250;28;1421;-92
2022/03/18 01:11:57;;;;;;;;;;;;;;;0.62;82.63;102675.53;5017837;28;1898;-92
2022/03/18 01:14:23;;;;;;;;;;;;;;;0.59;82.67;102673.19;5018162;28;1567;-92
2022/03/18 01:16:48;;;;;;;;;;;;;;;0.55;82.57;102679.91;5018252;28;1372;-92
2022/03/18 01:19:18;;;;;;;;;;;;;;;0.54;82.61;102685.44;5022509;28;1355;-92
2022/03/18 01:21:43;;;;;;;;;;;;;;;0.45;82.18;102673.78;5018394;28;1422;-92
2022/03/18 01:24:21;;;;;;;;;;;;;;;0.51;82.46;102686.59;5024974;28;1482;-92
2022/03/18 01:26:49;;;;;;;;;;;;;;;0.52;82.62;102692.84;5015256;28;1489;-92
2022/03/18 01:29:17;;;;;;;;;;;;;;;0.59;83.14;102692.06;5016891;28;1449;-92
2022/03/18 01:31:52;;;;;;;;;;;;;;;0.58;83.12;102684.13;5018006;28;1894;-92
2022/03/18 01:34:20;;;;;;;;;;;;;;;0.47;82.68;102687.09;5017627;28;1441;-92
2022/03/18 01:36:53;;;;;;;;;;;;;;;0.46;82.93;102682.72;5035419;28;800;-92
2022/03/18 01:39:22;;;;;;;;;;;;;;;0.47;83.11;102679.00;5017302;28;1201;-92
2022/03/18 01:41:48;;;;;;;;;;;;;;;0.43;82.86;102683.03;5017572;28;1286;-92
2022/03/18 01:44:13;;;;;;;;;;;;;;;0.47;83.08;102679.84;5016957;28;1670;-92
2022/03/18 01:46:39;;;;;;;;;;;;;;;0.45;83.04;102681.84;5017560;28;1242;-92
2022/03/18 01:49:10;;;;;;;;;;;;;;;0.44;82.96;102673.94;5017246;28;1554;-92
2022/03/18 01:51:35;;;;;;;;;;;;;;;0.45;82.96;102679.16;5017477;28;1975;-92
2022/03/18 01:57:00;;;;;;;;;;;;;;;0.46;83.10;102677.31;4997865;28;1408;-92
2022/03/18 01:59:28;;;;;;;;;;;;;;;0.37;83.19;102690.75;5004067;28;1512;-92
2022/03/18 02:01:53;;;;;;;;;;;;;;;0.40;83.29;102688.75;5034312;28;1185;-92
2022/03/18 02:04:19;;;;;;;;;;;;;;;0.50;83.54;102689.47;5016972;28;1304;-91
2022/03/18 02:06:46;;;;;;;;;;;;;;;0.49;83.37;102694.03;5016835;28;1520;-92
2022/03/18 02:09:19;;;;;;;;;;;;;;;0.48;83.18;102694.19;5016783;28;1467;-92
2022/03/18 02:11:48;;;;;;;;;;;;;;;0.47;82.89;102696.03;5016409;28;1902;-92
2022/03/18 02:14:13;;;;;;;;;;;;;;;0.43;82.39;102707.25;5016360;28;1307;-92
2022/03/18 02:16:40;;;;;;;;;;;;;;;0.50;82.95;102703.78;4997265;28;1245;-92
2022/03/18 02:19:06;;;;;;;;;;;;;;;0.53;82.98;102710.69;4997166;28;1353;-91
2022/03/18 02:21:31;;;;;;;;;;;;;;;0.55;83.01;102709.53;5000447;28;1269;-92
2022/03/18 02:23:57;;;;;;;;;;;;;;;0.65;82.84;102707.56;5033399;28;1405;-92
2022/03/18 02:26:22;;;;;;;;;;;;;;;0.71;83.54;102709.59;5008523;28;1552;-91
2022/03/18 02:28:48;;;;;;;;;;;;;;;0.75;83.12;102718.22;5000420;28;1499;-92
2022/03/18 02:31:13;;;;;;;;;;;;;;;0.70;82.93;102723.25;5001829;28;1501;-92
2022/03/18 02:33:38;;;;;;;;;;;;;;;0.62;82.25;102729.44;4996796;28;1958;-92
2022/03/18 02:36:03;;;;;;;;;;;;;;;0.73;82.97;102731.00;5000386;28;1182;-92
2022/03/18 02:38:29;;;;;;;;;;;;;;;0.74;82.62;102732.72;5001228;28;1185;-92
2022/03/18 02:40:54;;;;;;;;;;;;;;;0.82;83.46;102731.91;5001311;28;1488;-92
2022/03/18 02:43:19;;;;;;;;;;;;;;;0.77;84.83;102739.63;5000696;28;1349;-92
2022/03/18 02:45:44;;;;;;;;;;;;;;;0.67;86.26;102739.75;5001003;28;1383;-92
2022/03/18 02:48:16;;;;;;;;;;;;;;;0.64;87.83;102735.53;5001948;28;1546;-92
2022/03/18 02:50:41;;;;;;;;;;;;;;;0.59;89.33;102748.66;5017384;28;1473;-92
2022/03/18 02:53:10;;;;;;;;;;;;;;;0.62;90.89;102748.31;5019838;28;1894;-92
2022/03/18 02:55:35;;;;;;;;;;;;;;;0.58;91.48;102762.28;5020440;28;1260;-92
2022/03/18 02:58:00;;;;;;;;;;;;;;;0.60;91.58;102758.38;5020877;28;1208;-92
2022/03/18 03:00:26;;;;;;;;;;;;;;;0.48;92.37;102762.38;5009503;28;1485;-92
2022/03/18 03:02:51;;;;;;;;;;;;;;;0.42;92.93;102767.56;5004923;28;1352;-92
2022/03/18 03:08:00;;;;;;;;;;;;;;;0.34;93.78;102773.75;5018779;28;608;-93
2022/03/18 03:10:30;;;;;;;;;;;;;;;0.27;94.04;102769.97;5007666;28;1493;-92
2022/03/18 03:12:56;;;;;;;;;;;;;;;0.27;93.76;102783.44;5019139;28;1963;-92
2022/03/18 03:15:21;;;;;;;;;;;;;;;0.31;93.44;102791.06;5011412;28;1249;-92
2022/03/18 03:17:46;;;;;;;;;;;;;;;0.32;93.97;102791.91;5026989;28;1055;-92
2022/03/18 03:20:11;;;;;;;;;;;;;;;0.36;94.16;102788.72;5029658;28;1440;-93
2022/03/18 03:22:37;;;;;;;;;;;;;;;0.42;93.95;102794.50;5016240;28;1303;-92
2022/03/18 03:25:02;;;;;;;;;;;;;;;0.40;92.72;102799.19;5007420;28;1547;-92
2022/03/18 03:27:30;;;;;;;;;;;;;;;0.28;92.43;102814.75;5013178;28;1333;-92
2022/03/18 03:29:59;;;;;;;;;;;;;;;0.25;91.91;102820.47;5019180;28;1504;-93
2022/03/18 03:32:25;;;;;;;;;;;;;;;0.26;91.12;102817.59;5019495;28;1902;-92
2022/03/18 03:34:50;;;;;;;;;;;;;;;0.42;89.99;102816.06;5019414;28;1311;-92
2022/03/18 03:37:15;;;;;;;;;;;;;;;0.56;88.08;102815.47;5019322;28;1480;-92
2022/03/18 03:39:41;;;;;;;;;;;;;;;0.73;88.25;102823.50;5036977;28;1531;-92
2022/03/18 03:45:43;;;;;;;;;;;;;;;0.81;88.11;102835.34;5036930;28;628;-93
2022/03/18 03:54:43;;;;;;;;;;;;;;;0.64;87.28;102851.41;4995236;28;1186;-92
2022/03/18 03:57:08;;;;;;;;;;;;;;;0.77;87.69;102859.06;5006775;28;1576;-92
2022/03/18 03:59:33;;;;;;;;;;;;;;;0.78;87.66;102868.84;5019216;28;1213;-92
2022/03/18 04:01:58;;;;;;;;;;;;;;;0.71;86.64;102871.31;5018863;28;1333;-92
2022/03/18 04:04:24;;;;;;;;;;;;;;;0.73;86.92;102873.88;5018608;28;1503;-91
2022/03/18 04:06:49;;;;;;;;;;;;;;;0.77;87.47;102881.47;5019012;28;1227;-92
2022/03/18 04:09:15;;;;;;;;;;;;;;;0.78;87.29;102885.00;5019240;28;1221;-93
2022/03/18 04:11:40;;;;;;;;;;;;;;;0.83;87.12;102890.78;5019438;28;1957;-93
2022/03/18 04:14:05;;;;;;;;;;;;;;;0.79;86.74;102885.84;5018765;28;1516;-93
2022/03/18 04:16:31;;;;;;;;;;;;;;;0.74;87.30;102892.59;5019057;28;1179;-92
2022/03/18 04:18:56;;;;;;;;;;;;;;;0.69;87.50;102891.34;5018962;28;1408;-93
2022/03/18 04:21:21;;;;;;;;;;;;;;;0.68;87.73;102903.16;5002276;28;1572;-92
2022/03/18 04:23:46;;;;;;;;;;;;;;;0.76;87.48;102895.13;4998735;28;1328;-92
2022/03/18 04:26:11;;;;;;;;;;;;;;;0.71;88.02;102906.38;5005507;28;1409;-92
2022/03/18 04:28:36;;;;;;;;;;;;;;;0.65;88.72;102904.31;5018731;28;1126;-92
2022/03/18 04:31:02;;;;;;;;;;;;;;;0.74;89.53;102907.91;5018631;28;1203;-92
2022/03/18 04:33:27;;;;;;;;;;;;;;;0.77;90.08;102902.19;5017966;28;1890;-92
2022/03/18 04:35:52;;;;;;;;;;;;;;;0.77;90.38;102902.19;5018668;28;1276;-92
2022/03/18 04:38:17;;;;;;;;;;;;;;;0.83;90.47;102906.13;5018373;28;1496;-92
2022/03/18 04:40:42;;;;;;;;;;;;;;;0.82;90.37;102912.50;5017992;28;1502;-92
2022/03/18 04:43:08;;;;;;;;;;;;;;;0.88;91.00;102922.66;5017893;28;1169;-91
2022/03/18 04:45:33;;;;;;;;;;;;;;;0.68;91.27;102920.16;5017836;28;1374;-92
2022/03/18 04:47:58;;;;;;;;;;;;;;;0.72;91.78;102921.53;5014621;28;1327;-91
2022/03/18 04:50:23;;;;;;;;;;;;;;;0.66;91.37;102924.88;5002894;28;1465;-91
2022/03/18 04:52:48;;;;;;;;;;;;;;;0.70;91.68;102928.94;5017734;28;1890;-90
2022/03/18 04:55:14;;;;;;;;;;;;;;;0.81;91.77;102932.38;5017936;28;1048;-91
2022/03/18 04:57:39;;;;;;;;;;;;;;;0.72;92.01;102934.16;5017231;28;1210;-91
2022/03/18 05:00:05;;;;;;;;;;;;;;;0.65;92.12;102928.56;5017788;28;1516;-91
2022/03/18 05:02:30;;;;;;;;;;;;;;;0.62;91.97;102936.94;4998483;28;1335;-91
2022/03/18 05:04:55;;;;;;;;;;;;;;;0.51;92.29;102933.66;5017277;28;1571;-93
2022/03/18 05:07:21;;;;;;;;;;;;;;;0.43;92.03;102938.97;5015470;28;1323;-93
2022/03/18 05:09:48;;;;;;;;;;;;;;;0.44;92.58;102937.97;4999678;28;1360;-93
2022/03/18 05:12:23;;;;;;;;;;;;;;;0.36;92.70;102931.50;5013751;28;1894;-93
2022/03/18 05:17:35;;;;;;;;;;;;;;;0.44;93.19;102954.13;5036030;28;1576;-93
2022/03/18 05:20:06;;;;;;;;;;;;;;;0.45;93.50;102953.13;5042951;28;1251;-93
2022/03/18 05:22:33;;;;;;;;;;;;;;;0.47;93.98;102951.97;5041455;28;1252;-93
2022/03/18 05:24:58;;;;;;;;;;;;;;;0.55;94.35;102956.59;5017386;28;1274;-93
2022/03/18 05:27:47;;;;;;;;;;;;;;;0.42;94.41;102953.47;5000411;28;1479;-93
2022/03/18 05:30:19;;;;;;;;;;;;;;;0.56;93.97;102953.75;5002051;28;1348;-93
2022/03/18 05:32:51;;;;;;;;;;;;;;;0.63;94.39;102952.13;5006100;28;2155;-93
2022/03/18 05:35:18;;;;;;;;;;;;;;;0.69;94.54;102951.50;5015936;28;1388;-93
2022/03/18 05:38:08;;;;;;;;;;;;;;;0.73;93.83;102962.81;5019947;28;1639;-92
2022/03/18 05:40:34;;;;;;;;;;;;;;;0.79;93.14;102970.28;5018430;28;1370;-93
2022/03/18 05:43:08;;;;;;;;;;;;;;;0.62;92.71;102968.44;5019698;28;1128;-92
2022/03/18 05:45:38;;;;;;;;;;;;;;;0.71;92.73;102971.06;5017424;28;1295;-92
2022/03/18 05:48:29;;;;;;;;;;;;;;;;;;;;;
2022/03/18 05:50:54;;;;;;;;;;;;;;;0.65;92.31;102982.47;5034996;28;1673;-92
2022/03/18 05:53:22;;;;;;;;;;;;;;;0.61;92.28;102981.06;5016780;28;1959;-93
2022/03/18 05:58:42;;;;;;;;;;;;;;;0.48;92.52;102985.16;5035622;28;1464;-92
2022/03/18 06:01:10;;;;;;;;;;;;;;;0.40;92.24;102995.84;5017424;28;1347;-92
2022/03/18 06:03:39;;;;;;;;;;;;;;;0.40;92.37;102998.56;5017173;28;1225;-92
2022/03/18 06:06:04;;;;;;;;;;;;;;;0.19;91.92;102999.66;5017070;28;1426;-92
2022/03/18 06:14:00;;;;;;;;;;;;;;;0.07;91.68;103022.44;5033490;28;1902;-91
2022/03/18 06:16:25;;;;;;;;;;;;;;;0.00;91.30;103026.72;5016492;28;1082;-90
2022/03/18 06:18:50;;;;;;;;;;;;;;;-0.01;91.60;103025.88;5016295;28;1273;-90
2022/03/18 06:21:15;;;;;;;;;;;;;;;-0.02;91.86;103028.72;5016293;28;1515;-90
2022/03/18 06:23:41;;;;;;;;;;;;;;;0.01;92.02;103017.63;5016486;28;1203;-90
2022/03/18 06:26:06;;;;;;;;;;;;;;;0.03;92.97;103031.78;5016684;28;1511;-91
2022/03/18 06:28:31;;;;;;;;;;;;;;;0.06;93.00;103025.28;5016508;28;1291;-93
2022/03/18 06:30:56;;;;;;;;;;;;;;;0.17;93.11;103035.84;5033462;28;1477;-90
2022/03/18 06:33:21;;;;;;;;;;;;;;;0.16;92.70;103034.16;5016524;28;1944;-91
2022/03/18 06:35:46;;;;;;;;;;;;;;;0.35;92.73;103042.09;5022963;28;1321;-90
2022/03/18 06:38:12;;;;;;;;;;;;;;;0.56;92.86;103041.84;4999480;28;1314;-91
2022/03/18 06:40:37;;;;;;;;;;;;;;;0.54;93.04;103047.38;5006696;28;1447;-90
2022/03/18 06:43:02;;;;;;;;;;;;;;;0.48;92.92;103057.91;4996591;28;1193;-91
2022/03/18 06:45:27;;;;;;;;;;;;;;;0.54;92.75;103062.69;4996673;28;1185;-91
2022/03/18 06:47:52;;;;;;;;;;;;;;;0.50;92.25;103067.56;4997003;28;1250;-91
2022/03/18 06:50:18;;;;;;;;;;;;;;;0.51;92.16;103079.19;5014890;28;1539;-90
2022/03/18 06:52:43;;;;;;;;;;;;;;;0.55;92.17;103078.72;5016185;28;1965;-90
2022/03/18 06:55:08;;;;;;;;;;;;;;;0.56;92.07;103084.94;5015657;28;1646;-91
2022/03/18 06:57:33;;;;;;;;;;;;;;;0.59;92.40;103090.91;5016348;28;1274;-91
2022/03/18 06:59:58;;;;;;;;;;;;;;;0.52;92.30;103100.56;5015912;28;1623;-90
2022/03/18 07:02:26;;;;;;;;;;;;;;;0.46;92.64;103095.78;5016196;28;1196;-91
2022/03/18 07:04:51;;;;;;;;;;;;;;;0.52;93.15;103092.47;5015727;28;1535;-91
2022/03/18 07:07:16;;;;;;;;;;;;;;;0.64;93.11;103098.50;5016048;28;1702;-90
2022/03/18 07:09:41;;;;;;;;;;;;;;;0.85;93.46;103101.75;5016032;28;1307;-89
2022/03/18 07:12:07;;;;;;;;;;;;;;;0.82;92.57;103112.00;5033496;28;1898;-89
2022/03/18 07:14:32;;;;;;;;;;;;;;;1.00;93.30;103108.34;5015465;28;1342;-90
2022/03/18 07:19:41;;;;;;;;;;;;;;;1.09;93.19;103099.31;5022765;28;1295;-90
2022/03/18 07:22:06;;;;;;;;;;;;;;;1.24;92.78;103104.16;5018616;28;1308;-90
2022/03/18 07:24:32;;;;;;;;;;;;;;;1.30;92.32;103098.13;5006228;28;1222;-91
2022/03/18 07:26:57;;;;;;;;;;;;;;;1.31;92.04;103097.13;5019492;28;1698;-90
2022/03/18 07:29:22;;;;;;;;;;;;;;;1.40;91.77;103107.00;5019505;28;1329;-91
2022/03/18 07:31:47;;;;;;;;;;;;;;;1.46;91.08;103114.44;5019162;28;1957;-90
2022/03/18 07:34:12;;;;;;;;;;;;;;;1.57;91.28;103111.50;5019283;28;1369;-90
2022/03/18 07:55:43;;;;;;;;;;;;;;;1.55;90.71;103124.31;5426807;23;1698;-91
2022/03/18 07:58:08;;;;;;;;;;;;;;;1.28;90.13;103119.88;5062090;28;1557;-90
2022/03/18 08:00:34;;;;;;;;;;;;;;;1.28;91.07;103119.88;5046332;28;1397;-90
2022/03/18 08:03:05;;;;;;;;;;;;;;;1.40;91.33;103125.88;5028568;28;1334;-90
2022/03/18 08:05:30;;;;;;;;;;;;;;;1.45;91.40;103123.53;5058530;28;1188;-90
2022/03/18 08:07:56;;;;;;;;;;;;;;;1.55;90.44;103123.47;5058349;28;1309;-90
2022/03/18 08:10:26;;;;;;;;;;;;;;;1.72;90.58;103122.56;5058334;28;1431;-90
2022/03/18 08:12:52;;;;;;;;;;;;;;;1.74;90.57;103124.13;5058538;28;1914;-90
2022/03/18 08:15:19;;;;;;;;;;;;;;;1.72;90.12;103123.41;5058323;28;1395;-90
2022/03/18 08:17:44;;;;;;;;;;;;;;;1.59;90.44;103127.56;5058558;28;1248;-90
2022/03/18 08:20:11;;;;;;;;;;;;;;;1.48;90.05;103124.09;5058500;28;1335;-90
2022/03/18 08:22:36;;;;;;;;;;;;;;;1.69;90.23;103131.00;5076162;28;1254;-90
2022/03/18 08:25:02;;;;;;;;;;;;;;;1.72;90.47;103130.69;5076211;28;1070;-90
2022/03/18 08:27:27;;;;;;;;;;;;;;;1.79;90.35;103132.56;5058076;28;1184;-89
2022/03/18 08:29:57;;;;;;;;;;;;;;;1.86;89.26;103130.13;5057991;28;972;-90
2022/03/18 08:32:24;;;;;;;;;;;;;;;1.91;89.33;103133.19;5057057;28;1898;-90
2022/03/18 08:34:49;;;;;;;;;;;;;;;1.91;89.34;103149.38;5057920;28;1321;-90
2022/03/18 08:37:55;;;;;;;;;;;;;;;1.87;89.05;103146.13;5057971;28;1338;-91
2022/03/18 08:39:59;;;;;;;;;;;;;;;1.82;89.95;103143.06;5075656;28;1038;-90
2022/03/18 08:42:25;;;;;;;;;;;;;;;2.01;89.90;103146.56;5057702;28;1185;-90
2022/03/18 08:44:50;;;;;;;;;;;;;;;2.15;89.71;103151.38;5057472;28;797;-90
2022/03/18 08:47:15;;;;;;;;;;;;;;;2.28;88.57;103138.28;5075725;28;797;-90
2022/03/18 08:49:40;;;;;;;;;;;;;;;2.51;88.29;103134.00;5057613;28;1060;-90
2022/03/18 08:52:05;;;;;;;;;;;;;;;2.73;87.97;103137.09;5057458;28;1893;-91
2022/03/18 08:54:30;;;;;;;;;;;;;;;2.93;87.46;103139.38;5057331;28;1221;-90
2022/03/18 08:56:56;;;;;;;;;;;;;;;3.06;86.52;103140.75;5057373;28;923;-90
2022/03/18 08:59:23;;;;;;;;;;;;;;;3.05;86.63;103137.19;5057478;28;1219;-90
2022/03/18 09:01:48;;;;;;;;;;;;;;;2.91;86.14;103137.81;5057421;28;1210;-91
2022/03/18 09:04:13;;;;;;;;;;;;;;;2.75;86.62;103140.50;5057119;28;1248;-90
2022/03/18 09:06:38;;;;;;;;;;;;;;;2.76;86.54;103139.47;5053219;28;1291;-91
2022/03/18 09:09:05;;;;;;;;;;;;;;;2.89;86.78;103142.59;5037318;28;1008;-90
2022/03/18 09:11:30;;;;;;;;;;;;;;;2.99;86.87;103137.84;5037218;28;1220;-90
2022/03/18 09:13:55;;;;;;;;;;;;;;;3.00;87.25;103142.25;5037417;28;1964;-91
2022/03/18 09:16:20;;;;;;;;;;;;;;;2.94;87.09;103138.34;5055031;28;802;-90
2022/03/18 09:18:45;;;;;;;;;;;;;;;2.78;86.92;103143.72;5037135;28;1393;-90
2022/03/18 09:21:10;;;;;;;;;;;;;;;2.79;87.08;103153.53;5037337;28;1176;-90
2022/03/18 09:23:36;;;;;;;;;;;;;;;2.74;87.59;103150.47;5054789;28;988;-90
2022/03/18 09:26:01;;;;;;;;;;;;;;;2.69;87.79;103160.94;5037025;28;1160;-91
2022/03/18 09:28:26;;;;;;;;;;;;;;;2.70;87.96;103156.38;5037134;28;1063;-90
2022/03/18 09:30:51;;;;;;;;;;;;;;;2.73;88.03;103154.16;5036845;28;1295;-90
2022/03/18 09:33:17;;;;;;;;;;;;;;;2.81;88.57;103154.19;5036783;28;1898;-90
2022/03/18 09:35:43;;;;;;;;;;;;;;;2.96;88.78;103163.41;5036860;28;1204;-90
2022/03/18 09:38:08;;;;;;;;;;;;;;;3.09;88.85;103165.59;5036882;28;1188;-90
2022/03/18 09:40:33;;;;;;;;;;;;;;;3.15;88.54;103166.81;5036881;28;1173;-91
2022/03/18 09:43:06;;;;;;;;;;;;;;;3.18;88.61;103166.47;5037133;28;1220;-91
2022/03/18 09:45:33;;;;;;;;;;;;;;;3.23;88.87;103169.53;5036526;28;1207;-91
2022/03/18 09:47:59;;;;;;;;;;;;;;;3.29;89.02;103185.09;5036641;28;1310;-90
2022/03/18 09:50:25;;;;;;;;;;;;;;;3.30;89.00;103192.22;5036467;28;1268;-91
2022/03/18 09:52:50;;;;;;;;;;;;;;;3.28;89.40;103192.38;5036430;28;1951;-90
2022/03/18 09:55:16;;;;;;;;;;;;;;;3.33;89.09;103197.28;5036255;28;1149;-90
2022/03/18 09:57:41;;;;;;;;;;;;;;;3.38;88.96;103203.06;5036577;28;1278;-90
2022/03/18 10:00:06;;;;;;;;;;;;;;;3.42;89.04;103205.25;5036644;28;1323;-90
2022/03/18 10:02:33;;;;;;;;;;;;;;;3.47;88.96;103202.06;5036298;28;1194;-90
2022/03/18 10:05:00;;;;;;;;;;;;;;;3.52;88.79;103202.38;5036430;28;1207;-90
2022/03/18 10:07:26;;;;;;;;;;;;;;;3.56;88.70;103206.47;5036267;28;1339;-91
2022/03/18 10:10:00;;;;;;;;;;;;;;;3.63;88.74;103217.47;5036194;28;1164;-90
2022/03/18 10:12:29;;;;;;;;;;;;;;;3.66;88.78;103214.41;5053860;28;1984;-90
2022/03/18 10:15:11;;;;;;;;;;;;;;;3.73;88.67;103218.16;5036114;28;1292;-90
2022/03/18 10:17:56;;;;;;;;;;;;;;;3.81;88.42;103204.59;5054086;28;802;-90
2022/03/18 10:20:32;;;;;;;;;;;;;;;3.88;88.39;103211.03;5053783;28;1270;-91
2022/03/18 10:23:01;;;;;;;;;;;;;;;3.98;88.60;103202.72;5036091;28;1220;-90
2022/03/18 10:25:41;;;;;;;;;;;;;;;4.09;88.11;103205.91;5036078;28;1205;-91
2022/03/18 10:28:08;;;;;;;;;;;;;;;4.22;88.20;103208.13;5036383;28;1498;-90
2022/03/18 10:30:33;;;;;;;;;;;;;;;4.36;87.85;103211.97;5035879;28;1213;-90
2022/03/18 10:32:59;;;;;;;;;;;;;;;4.46;87.75;103209.91;5036183;28;1897;-91
2022/03/18 10:38:35;;;;;;;;;;;;;;;4.97;82.75;103207.69;5054141;28;620;-90
2022/03/18 10:41:05;;;;;;;;;;;;;;;5.31;80.48;103194.59;5035940;28;1219;-91
2022/03/18 10:43:48;;;;;;;;;;;;;;;5.36;81.05;103186.72;5035763;28;1264;-90
2022/03/18 10:46:13;;;;;;;;;;;;;;;5.38;80.92;103190.13;5053811;28;1065;-90
2022/03/18 10:48:39;;;;;;;;;;;;;;;5.33;80.83;103193.38;5036404;28;1068;-90
2022/03/18 10:51:04;;;;;;;;;;;;;;;5.37;79.29;103190.28;5053515;28;1194;-91
2022/03/18 10:53:31;;;;;;;;;;;;;;;5.57;79.01;103189.66;5035643;28;1945;-91
2022/03/18 10:55:59;;;;;;;;;;;;;;;5.70;78.14;103189.84;5036910;28;1204;-91
2022/03/18 10:58:24;;;;;;;;;;;;;;;5.87;77.42;103184.31;5057631;28;864;-90
2022/03/18 11:00:50;;;;;;;;;;;;;;;5.94;76.31;103193.44;5040203;28;1298;-91
2022/03/18 11:03:15;;;;;;;;;;;;;;;6.02;76.74;103209.69;5039819;28;1208;-90
2022/03/18 11:05:41;;;;;;;;;;;;;;;5.94;76.11;103201.59;5039654;28;1185;-91
2022/03/18 11:08:09;;;;;;;;;;;;;;;5.99;74.69;103204.59;5039683;28;1382;-91
2022/03/18 11:13:21;;;;;;;;;;;;;;;6.18;72.29;103206.81;5057493;28;1890;-90
2022/03/18 11:15:46;;;;;;;;;;;;;;;6.10;72.94;103193.28;5039481;28;1188;-91
2022/03/18 11:18:12;;;;;;;;;;;;;;;6.12;73.07;103198.56;5039544;28;1231;-90
2022/03/18 11:20:42;;;;;;;;;;;;;;;6.20;73.27;103193.88;5039243;28;1312;-90
2022/03/18 11:23:13;;;;;;;;;;;;;;;6.39;73.01;103204.19;5039690;28;1388;-91
2022/03/18 11:25:40;;;;;;;;;;;;;;;6.50;72.64;103207.47;5039519;28;1232;-91
2022/03/18 11:28:06;;;;;;;;;;;;;;;6.66;71.59;103204.56;5056891;28;1235;-90
2022/03/18 11:30:35;;;;;;;;;;;;;;;6.57;72.59;103194.81;5039167;28;1318;-91
2022/03/18 11:33:09;;;;;;;;;;;;;;;6.71;73.88;103177.66;5038962;28;1885;-91
2022/03/18 11:35:50;;;;;;;;;;;;;;;6.95;71.63;103182.75;5039077;28;1190;-90
2022/03/18 11:38:17;;;;;;;;;;;;;;;6.82;71.98;103190.75;5038933;28;1228;-91
2022/03/18 11:40:51;;;;;;;;;;;;;;;6.75;71.72;103184.38;5039373;28;1231;-90
2022/03/18 11:43:33;;;;;;;;;;;;;;;7.10;67.43;103194.47;5038898;28;1220;-91
2022/03/18 11:46:16;;;;;;;;;;;;;;;6.96;68.18;103172.72;5039130;28;1365;-91
2022/03/18 11:48:52;;;;;;;;;;;;;;;6.92;66.95;103174.97;5038765;28;1295;-90
2022/03/18 11:51:36;;;;;;;;;;;;;;;7.19;65.58;103167.94;5038656;28;1330;-90
2022/03/18 11:54:01;;;;;;;;;;;;;;;7.34;67.08;103168.72;5038586;28;1874;-91
2022/03/18 11:56:43;;;;;;;;;;;;;;;7.34;64.81;103167.88;5038500;28;1263;-91
2022/03/18 11:59:31;;;;;;;;;;;;;;;7.46;65.46;103167.19;5038829;28;1214;-90
2022/03/18 12:02:00;;;;;;;;;;;;;;;7.72;64.18;103161.13;5038915;28;1281;-91
2022/03/18 12:04:41;;;;;;;;;;;;;;;7.68;64.89;103157.09;5038573;28;1267;-91
2022/03/18 12:07:13;;;;;;;;;;;;;;;7.52;65.57;103160.94;5037551;28;1228;-91
2022/03/18 12:09:47;;;;;;;;;;;;;;;7.92;66.03;103162.13;5038333;28;1335;-90
2022/03/18 12:12:15;;;;;;;;;;;;;;;8.26;61.65;103160.47;5056095;28;1902;-91
2022/03/18 12:14:40;;;;;;;;;;;;;;;8.17;61.19;103158.94;5038184;28;1263;-90
2022/03/18 12:17:06;;;;;;;;;;;;;;;8.20;63.03;103153.94;5038223;28;1196;-90
2022/03/18 12:19:31;;;;;;;;;;;;;;;8.14;63.71;103162.09;5038430;28;1229;-91
2022/03/18 12:21:59;;;;;;;;;;;;;;;8.14;61.94;103153.91;5038136;28;1209;-91
2022/03/18 12:24:26;;;;;;;;;;;;;;;8.34;59.60;103149.44;5038491;28;1301;-91
2022/03/18 12:26:51;;;;;;;;;;;;;;;8.29;61.63;103154.63;5038671;28;1319;-90
2022/03/18 12:29:26;;;;;;;;;;;;;;;8.21;61.86;103149.31;5038282;28;1228;-90
2022/03/18 12:31:51;;;;;;;;;;;;;;;8.18;62.54;103147.84;5038116;28;1367;-91
2022/03/18 12:34:17;;;;;;;;;;;;;;;8.32;60.44;103144.19;5038242;28;1943;-90
2022/03/18 12:36:44;;;;;;;;;;;;;;;8.36;61.35;103139.16;5038116;28;1213;-90
2022/03/18 12:39:11;;;;;;;;;;;;;;;8.33;60.24;103134.13;5038610;28;1447;-91
2022/03/18 12:41:37;;;;;;;;;;;;;;;8.40;58.91;103136.88;5037998;28;1383;-90
2022/03/18 12:44:02;;;;;;;;;;;;;;;8.43;59.69;103140.03;5037752;28;1210;-90
2022/03/18 12:46:29;;;;;;;;;;;;;;;8.47;60.25;103143.22;5037789;28;1256;-91
2022/03/18 12:48:55;;;;;;;;;;;;;;;8.57;59.28;103128.16;5055603;28;873;-90
2022/03/18 12:51:20;;;;;;;;;;;;;;;8.66;58.47;103132.41;5037773;28;1340;-91
2022/03/18 12:53:46;;;;;;;;;;;;;;;8.84;57.74;103129.13;5037665;28;1890;-90
2022/03/18 12:56:16;;;;;;;;;;;;;;;8.96;58.23;103126.59;5055507;28;853;-91
2022/03/18 12:58:41;;;;;;;;;;;;;;;9.09;57.29;103130.25;5037580;28;1204;-90
2022/03/18 13:01:08;;;;;;;;;;;;;;;9.30;56.84;103125.63;5053298;28;1684;-90
2022/03/18 13:03:37;;;;;;;;;;;;;;;9.26;54.51;103111.56;5057347;28;1276;-91
2022/03/18 13:06:11;;;;;;;;;;;;;;;9.27;55.17;103115.94;5057304;28;1407;-90
2022/03/18 13:08:37;;;;;;;;;;;;;;;9.26;54.97;103117.03;5057407;28;1216;-91
2022/03/18 13:11:04;;;;;;;;;;;;;;;9.34;53.17;103111.34;5057173;28;1216;-91
2022/03/18 13:13:29;;;;;;;;;;;;;;;9.49;54.57;103109.25;5057326;28;1874;-91
2022/03/18 13:15:59;;;;;;;;;;;;;;;9.82;54.36;103103.78;5057318;28;1538;-90
2022/03/18 13:18:25;;;;;;;;;;;;;;;10.15;55.15;103114.66;5057185;28;1377;-91
2022/03/18 13:20:55;;;;;;;;;;;;;;;12.59;48.65;103110.19;5057378;28;1402;-91
2022/03/18 13:23:21;;;;;;;;;;;;;;;18.99;35.20;103092.56;5057091;28;1208;-91
2022/03/18 13:25:46;;;;;;;;;;;;;;;23.51;27.90;103090.25;5057618;28;1172;-90
2022/03/18 13:28:12;;;;;;;;;;;;;;;24.71;25.47;103085.41;5057733;28;1255;-92
2022/03/18 13:33:21;;;;;;;;;;;;;;;26.19;23.22;103086.19;5075497;28;1954;-91
2022/03/18 13:35:47;;;;;;;;;;;;;;;24.88;23.95;103080.81;5075278;28;833;-90
2022/03/18 13:38:17;;;;;;;;;;;;;;;24.60;24.05;103086.78;5057499;28;1385;-91
2022/03/18 13:41:14;;;;;;;;;;;;;;;23.87;23.31;103084.88;5075807;28;1217;-91
2022/03/18 13:43:39;;;;;;;;;;;;;;;21.49;27.43;103084.09;5045511;28;1295;-91
2022/03/18 13:46:18;;;;;;;;;;;;;;;20.38;29.11;103090.31;5057615;28;1319;-91
2022/03/18 13:48:44;;;;;;;;;;;;;;;19.93;29.82;103094.84;5057120;28;1184;-91
2022/03/18 13:51:09;;;;;;;;;;;;;;;18.94;30.33;103084.25;5057028;28;1272;-91
2022/03/18 13:53:36;;;;;;;;;;;;;;;19.04;31.93;103081.50;5056964;28;1890;-90
2022/03/18 13:56:13;;;;;;;;;;;;;;;17.73;33.33;103090.84;5057155;28;1184;-91
2022/03/18 13:58:38;;;;;;;;;;;;;;;15.51;38.41;103102.69;5057038;28;1259;-91
2022/03/18 14:01:08;;;;;;;;;;;;;;;16.03;37.14;103105.19;5057123;28;1351;-91
2022/03/18 14:03:33;;;;;;;;;;;;;;;15.86;38.00;103097.78;5056997;28;1283;-91